Impacts METAR Board
IDs:

KMCO - Orlando Intl, FL, US

Updated at: 2100 UTC 15 Jun 2019
Potential Impact None Slight Moderate High
Time 15/09Z 15/10Z 15/11Z 15/12Z 15/13Z 15/14Z 15/15Z 15/16Z 15/17Z 15/18Z 15/19Z 15/20Z 15/21Z
Temp74 74 75 78 81 83 85 87 89 89 88 87 87
Dewpt72 72 73 74 74 72 72 70 71 74 73 71 71
Altim30.07 30.09 30.11 30.12 30.13 30.13 30.13 30.13 30.12 30.10 30.07 30.06 30.04
VIS10 10 10 10 10 10 10 10 10 10 10 10 10
CIG250 250 250 -- -- 26 37 37 40 60 85 85 90
CoverOVCBKNBKNSCTFEWBKNBKNBKNBKNBKNBKNBKNBKN
FltCatVFRVFRVFRVFRVFRMVFRVFRVFRVFRVFRVFRVFRVFR
WX--------------------------
WDir50404050700500906011080110
WSpd5 3 6 8 7 5 3 0 4 13 14 10 12
WGst-- -- -- -- -- -- -- -- -- -- -- -- --
Raw hourly METARs
KMCO 150853Z 05005KT 10SM FEW026 OVC250 23/22 A3007 RMK AO2 SLP182 T02330222 56007
KMCO 150953Z 04003KT 10SM FEW009 FEW025 BKN250 23/22 A3009 RMK AO2 SLP188 T02330222
KMCO 151053Z 04006KT 10SM FEW010 FEW025 BKN250 24/23 A3011 RMK AO2 SLP194 T02390228
KMCO 151153Z 05008KT 10SM FEW025 SCT250 26/23 A3012 RMK AO2 SLP197 T02560233 10256 20228 51015
KMCO 151253Z 07007KT 10SM FEW025 FEW250 27/23 A3013 RMK AO2 SLP200 T02720233
KMCO 151353Z VRB05KT 10SM FEW019 BKN026 28/22 A3013 RMK AO2 SLP202 T02830222
KMCO 151453Z 05003KT 10SM FEW025 BKN037 BKN070 29/22 A3013 RMK AO2 SLP203 T02940222 51006
KMCO 151553Z 00000KT 10SM SCT025 BKN037 31/21 A3013 RMK AO2 SLP202 T03060211
KMCO 151653Z 09004KT 10SM BKN040 BKN060 32/22 A3012 RMK AO2 SLP197 CB DSNT NE MOV W T03170217
KMCO 151753Z 06013KT 10SM FEW035 BKN060 BKN085 32/23 A3010 RMK AO2 SLP191 CB DSNT S T03170233 10322 20256 58011
KMCO 151853Z 11014KT 10SM FEW032CB SCT060 BKN085 BKN250 31/23 A3007 RMK AO2 TSE01B11E37 SLP181 CB NE MOV NE CB DSNT N AND S T03110228
KMCO 151953Z 08010KT 10SM FEW039 SCT060 BKN085 BKN250 31/22 A3006 RMK AO2 SLP179 CB DSNT SE T03060217
KMCO 152053Z 11012KT 10SM FEW035 SCT060 BKN090 BKN250 31/22 A3004 RMK AO2 SLP172 CB DSNT SW T03060217 56019



Page loaded:  21:15 UTC  |   02:15 PM Pacific  |   03:15 PM Mountain  |   04:15 PM Central  |   05:15 PM Eastern

 

ADVISORIES

FORECASTS

FORECASTS

OBSERVATIONS

USER TOOLS

ABOUT US